createdAt,value
2023-07-08T00:00:27.792Z,100387.03
2023-07-08T00:02:56.253Z,100392.25
2023-07-08T00:05:25.781Z,100393.13
2023-07-08T00:07:53.743Z,100396.69
2023-07-08T00:10:25.796Z,100400.03
2023-07-08T00:12:59.452Z,100395.72
2023-07-08T00:15:29.944Z,100396.53
2023-07-08T00:17:58.077Z,100407.81
2023-07-08T00:20:38.136Z,100399.78
2023-07-08T00:23:06.376Z,100402.31
2023-07-08T00:25:35.865Z,100399.56
2023-07-08T00:28:04.048Z,100401.81
2023-07-08T00:30:33.654Z,100396.38
2023-07-08T00:33:01.768Z,100403.47
2023-07-08T00:35:33.873Z,100403.56
2023-07-08T00:38:03.473Z,100405.19
2023-07-08T00:40:33.983Z,100398.91
2023-07-08T00:43:07.556Z,100405.56
2023-07-08T00:45:57.253Z,100405.56
2023-07-08T00:48:35.342Z,100409.41
2023-07-08T00:51:03.462Z,100401.47
2023-07-08T00:53:34.257Z,100408.88
2023-07-08T00:56:04.962Z,100407.78
2023-07-08T00:58:39.573Z,100408.13
2023-07-08T01:01:08.225Z,100410.88
2023-07-08T01:03:45.379Z,100412.00
2023-07-08T01:06:14.270Z,100404.91
2023-07-08T01:08:42.349Z,100420.88
2023-07-08T01:11:10.618Z,100404.09
2023-07-08T01:13:45.152Z,100401.06
2023-07-08T01:16:13.434Z,100405.50
2023-07-08T01:18:42.295Z,100408.25
2023-07-08T01:21:33.918Z,100406.84
2023-07-08T01:24:06.114Z,100413.97
2023-07-08T01:26:37.436Z,100420.88
2023-07-08T01:29:06.286Z,100422.50
2023-07-08T01:31:34.376Z,100421.41
2023-07-08T01:34:02.823Z,100421.69
2023-07-08T01:36:43.668Z,100416.22
2023-07-08T01:39:17.137Z,100422.81
2023-07-08T01:41:45.125Z,100419.28
2023-07-08T01:44:25.289Z,100426.72
2023-07-08T01:46:57.421Z,100428.97
2023-07-08T01:49:25.823Z,100420.00
2023-07-08T01:51:54.442Z,100424.09
2023-07-08T01:54:23.801Z,100417.78
2023-07-08T01:56:57.354Z,100422.69
2023-07-08T01:59:25.718Z,100422.97
2023-07-08T02:01:56.291Z,100425.97
2023-07-08T02:04:25.744Z,100419.06
2023-07-08T02:06:55.750Z,100422.03
2023-07-08T02:09:26.150Z,100425.03
2023-07-08T02:11:54.286Z,100424.75
2023-07-08T02:14:22.557Z,100432.97
2023-07-08T02:16:51.288Z,100430.75
2023-07-08T02:19:19.417Z,100435.13
2023-07-08T02:21:47.378Z,100430.72
2023-07-08T02:24:18.193Z,100442.81
2023-07-08T02:26:48.947Z,100447.72
2023-07-08T02:29:16.963Z,100451.56
2023-07-08T02:31:44.961Z,100452.03
2023-07-08T02:34:13.186Z,100464.38
2023-07-08T02:36:41.147Z,100456.38
2023-07-08T02:39:09.264Z,100458.00
2023-07-08T02:41:37.449Z,100470.03
2023-07-08T02:44:07.411Z,100467.59
2023-07-08T02:46:35.655Z,100472.72
2023-07-08T02:49:03.668Z,100480.31
2023-07-08T02:51:31.681Z,100471.72
2023-07-08T02:53:59.764Z,100474.03
2023-07-08T02:56:28.305Z,100479.25
2023-07-08T02:58:56.372Z,100483.78
2023-07-08T03:01:27.905Z,100478.19
2023-07-08T03:03:58.130Z,100486.34
2023-07-08T03:06:28.607Z,100485.97
2023-07-08T03:08:56.598Z,100480.94
2023-07-08T03:11:25.213Z,100487.69
2023-07-08T03:13:53.277Z,100483.75
2023-07-08T03:16:21.324Z,100482.03
2023-07-08T03:18:50.749Z,100489.16
2023-07-08T03:21:20.224Z,100485.31
2023-07-08T03:23:49.644Z,100491.03
2023-07-08T03:26:19.468Z,100489.56
2023-07-08T03:28:47.739Z,100489.28
2023-07-08T03:31:15.912Z,100481.78
2023-07-08T03:33:44.024Z,100484.53
2023-07-08T03:36:23.847Z,100493.78
2023-07-08T03:38:52.797Z,100494.03
2023-07-08T03:41:21.171Z,100490.97
2023-07-08T03:43:49.155Z,100488.28
2023-07-08T03:46:17.772Z,100491.56
2023-07-08T03:48:45.783Z,100491.56
2023-07-08T03:51:25.471Z,100485.47
2023-07-08T03:53:53.572Z,100495.28
2023-07-08T03:56:21.568Z,100493.13
2023-07-08T03:58:49.597Z,100495.88
2023-07-08T04:01:18.671Z,100493.03
2023-07-08T04:03:47.088Z,100498.53
2023-07-08T04:06:16.506Z,100499.56
2023-07-08T04:08:44.557Z,100489.81
2023-07-08T04:11:14.857Z,100491.75
2023-07-08T04:13:44.111Z,100492.06
2023-07-08T04:16:20.549Z,100499.50
2023-07-08T04:18:52.171Z,100500.00
2023-07-08T04:21:22.907Z,100498.69
2023-07-08T04:23:51.516Z,100495.31
2023-07-08T04:26:20.172Z,100503.25
2023-07-08T04:28:48.898Z,100508.91
2023-07-08T04:31:17.008Z,100501.88
2023-07-08T04:33:45.007Z,100507.81
2023-07-08T04:36:18.128Z,100498.28
2023-07-08T04:38:48.291Z,100509.09
2023-07-08T04:41:16.359Z,100499.63
2023-07-08T04:43:44.944Z,100495.34
2023-07-08T04:46:21.410Z,100502.09
2023-07-08T04:48:49.445Z,100499.72
2023-07-08T04:51:17.438Z,100501.28
2023-07-08T04:53:45.433Z,100501.81
2023-07-08T04:56:14.801Z,100503.03
2023-07-08T04:58:42.833Z,100494.84
2023-07-08T05:01:10.828Z,100505.28
2023-07-08T05:03:38.898Z,100508.03
2023-07-08T05:06:06.961Z,100507.53
2023-07-08T05:08:34.943Z,100500.91
2023-07-08T05:11:03.118Z,100513.34
2023-07-08T05:13:32.580Z,100512.00
2023-07-08T05:16:00.640Z,100516.00
2023-07-08T05:18:28.642Z,100507.91
2023-07-08T05:20:57.255Z,100510.56
2023-07-08T05:23:25.492Z,100512.28
2023-07-08T05:25:53.479Z,100514.31
2023-07-08T05:28:22.716Z,100511.06
2023-07-08T05:30:55.364Z,100512.69
2023-07-08T05:33:23.518Z,100514.44
2023-07-08T05:35:51.567Z,100517.28
2023-07-08T05:38:20.185Z,100513.75
2023-07-08T05:40:51.579Z,100516.31
2023-07-08T05:43:19.637Z,100511.59
2023-07-08T05:46:01.681Z,100512.69
2023-07-08T05:48:38.161Z,100513.59
2023-07-08T05:51:06.186Z,100516.31
2023-07-08T05:53:34.181Z,100517.84
2023-07-08T05:56:04.650Z,100522.41
2023-07-08T05:58:32.673Z,100519.47
2023-07-08T06:01:01.444Z,100532.41
2023-07-08T06:03:29.837Z,100519.50
2023-07-08T06:05:59.479Z,100523.69
2023-07-08T06:08:27.802Z,100524.66
2023-07-08T06:10:55.808Z,100526.69
2023-07-08T06:13:23.909Z,100530.25
2023-07-08T06:16:14.378Z,100527.69
2023-07-08T06:18:44.392Z,100530.84
2023-07-08T06:21:13.827Z,100529.06
2023-07-08T06:23:41.813Z,100524.94
2023-07-08T06:26:09.783Z,100523.53
2023-07-08T06:28:37.799Z,100533.31
2023-07-08T06:31:08.704Z,100526.00
2023-07-08T06:33:36.788Z,100527.69
2023-07-08T06:36:05.682Z,100525.22
2023-07-08T06:38:35.033Z,100526.72
2023-07-08T06:41:03.100Z,100526.09
2023-07-08T06:43:32.681Z,100520.13
2023-07-08T06:46:00.747Z,100527.53
2023-07-08T06:48:28.786Z,100517.75
2023-07-08T06:50:57.121Z,100525.25
2023-07-08T06:53:25.012Z,100525.91
2023-07-08T06:55:54.439Z,100526.28
2023-07-08T06:58:22.775Z,100530.19
2023-07-08T07:00:50.504Z,100521.09
2023-07-08T07:03:21.315Z,100525.66
2023-07-08T07:05:49.361Z,100526.66
2023-07-08T07:08:19.677Z,100529.41
2023-07-08T07:10:47.665Z,100532.81
2023-07-08T07:13:17.185Z,100536.25
2023-07-08T07:15:45.341Z,100530.88
2023-07-08T07:18:14.118Z,100533.50
2023-07-08T07:20:50.885Z,100539.19
2023-07-08T07:23:19.050Z,100537.28
2023-07-08T07:25:48.591Z,100524.56
2023-07-08T07:28:19.225Z,100527.84
2023-07-08T07:30:51.096Z,100523.47
2023-07-08T07:33:19.315Z,100523.28
2023-07-08T07:35:47.740Z,100531.25
2023-07-08T07:38:17.449Z,100534.84
2023-07-08T07:40:45.735Z,100531.75
2023-07-08T07:43:15.186Z,100534.34
2023-07-08T07:45:44.512Z,100543.69
2023-07-08T07:48:12.580Z,100540.75
2023-07-08T07:50:41.028Z,100543.34
2023-07-08T07:53:09.415Z,100543.66
2023-07-08T07:55:37.521Z,100544.94
2023-07-08T07:58:06.201Z,100540.22
2023-07-08T08:00:34.205Z,100542.03
2023-07-08T08:03:03.756Z,100542.66
2023-07-08T08:05:31.814Z,100543.28
2023-07-08T08:08:00.952Z,100542.28
2023-07-08T08:10:28.947Z,100538.00
2023-07-08T08:12:56.962Z,100537.19
2023-07-08T08:15:24.989Z,100544.03
2023-07-08T08:17:53.877Z,100542.56
2023-07-08T08:20:26.202Z,100544.34
2023-07-08T08:22:57.417Z,100536.03
2023-07-08T08:25:26.576Z,100533.41
2023-07-08T08:27:54.913Z,100542.84
2023-07-08T08:30:23.820Z,100550.19
2023-07-08T08:32:51.943Z,100538.13
2023-07-08T08:35:20.003Z,100541.53
2023-07-08T08:37:49.426Z,100539.69
2023-07-08T08:40:21.995Z,100543.41
2023-07-08T08:42:55.501Z,100545.28
2023-07-08T08:45:26.852Z,100547.66
2023-07-08T08:48:00.669Z,100552.34
2023-07-08T08:50:35.887Z,100546.16
2023-07-08T08:53:10.901Z,100544.97
2023-07-08T08:55:39.092Z,100546.09
2023-07-08T08:58:12.551Z,100543.75
2023-07-08T09:00:48.994Z,100549.63
2023-07-08T09:03:19.754Z,100543.84
2023-07-08T09:05:49.142Z,100539.72
2023-07-08T09:08:35.871Z,100539.19
2023-07-08T09:11:15.598Z,100540.28
2023-07-08T09:13:43.751Z,100539.81
2023-07-08T09:16:16.587Z,100542.59
2023-07-08T09:18:52.227Z,100539.81
2023-07-08T09:21:28.074Z,100542.72
2023-07-08T09:24:04.127Z,100533.47
2023-07-08T09:26:34.962Z,100534.56
2023-07-08T09:29:12.791Z,100540.38
2023-07-08T09:31:50.150Z,100529.28
2023-07-08T09:34:19.780Z,100537.25
2023-07-08T09:36:49.672Z,100542.38
2023-07-08T09:39:20.408Z,100531.06
2023-07-08T09:41:50.692Z,100539.84
2023-07-08T09:44:27.654Z,100528.88
2023-07-08T09:46:56.530Z,100530.59
2023-07-08T09:49:29.066Z,100541.72
2023-07-08T09:51:57.435Z,100537.78
2023-07-08T09:54:28.500Z,100539.28
2023-07-08T09:57:10.930Z,100550.09
2023-07-08T09:59:46.656Z,100542.41
2023-07-08T10:02:45.105Z,100537.09
2023-07-08T10:05:25.949Z,100532.56
2023-07-08T10:07:57.048Z,100535.84
2023-07-08T10:10:32.389Z,100536.41
2023-07-08T10:13:05.068Z,100537.66
2023-07-08T10:15:43.849Z,100533.28
2023-07-08T10:18:17.093Z,100535.69
2023-07-08T10:20:56.660Z,100529.09
2023-07-08T10:23:36.994Z,100523.88
2023-07-08T10:26:13.668Z,100533.66
2023-07-08T10:28:50.160Z,100521.81
2023-07-08T10:31:28.930Z,100510.97
2023-07-08T10:34:19.713Z,100514.50
2023-07-08T10:36:53.095Z,100527.22
2023-07-08T10:39:53.609Z,100512.25
2023-07-08T10:42:37.324Z,100511.66
2023-07-08T10:45:14.297Z,100517.22
2023-07-08T10:48:03.843Z,100524.97
2023-07-08T10:50:54.366Z,100514.91
2023-07-08T10:53:39.197Z,100511.88
2023-07-08T10:56:17.418Z,100518.59
2023-07-08T10:59:15.257Z,100505.63
2023-07-08T11:01:55.507Z,100513.28
2023-07-08T11:04:29.057Z,100515.84
2023-07-08T11:07:00.048Z,100507.72
2023-07-08T11:09:35.271Z,100514.09
2023-07-08T11:12:13.655Z,100513.84
2023-07-08T11:14:49.983Z,100519.72
2023-07-08T11:17:23.265Z,100521.75
2023-07-08T11:19:57.471Z,100516.50
2023-07-08T11:22:25.531Z,100514.88
2023-07-08T11:24:57.731Z,100520.91
2023-07-08T11:27:29.385Z,100514.41
2023-07-08T11:30:02.253Z,100500.03
2023-07-08T11:32:32.503Z,100511.25
2023-07-08T11:35:06.549Z,100504.34
2023-07-08T11:37:36.263Z,100508.72
2023-07-08T11:40:09.877Z,100504.56
2023-07-08T11:42:43.283Z,100495.22
2023-07-08T11:45:27.125Z,100493.16
2023-07-08T11:47:55.752Z,100495.84
2023-07-08T11:50:26.537Z,100499.00
2023-07-08T11:52:57.525Z,100500.88
2023-07-08T11:55:31.121Z,100501.59
2023-07-08T11:58:02.446Z,100497.38
2023-07-08T12:00:36.066Z,100496.00
2023-07-08T12:03:20.665Z,100499.34
2023-07-08T12:05:48.807Z,100494.75
2023-07-08T12:08:20.373Z,100482.81
2023-07-08T12:10:52.388Z,100471.28
2023-07-08T12:13:25.637Z,100479.03
2023-07-08T12:15:56.571Z,100470.75
2023-07-08T12:18:27.608Z,100485.44
2023-07-08T12:20:59.300Z,100477.94
2023-07-08T12:23:29.365Z,100482.34
2023-07-08T12:25:59.798Z,100473.59
2023-07-08T12:28:28.169Z,100471.09
2023-07-08T12:31:00.873Z,100470.13
2023-07-08T12:33:35.171Z,100467.44
2023-07-08T12:36:06.138Z,100471.16
2023-07-08T12:38:57.798Z,100471.59
2023-07-08T12:41:29.612Z,100471.47
2023-07-08T12:43:58.437Z,100470.63
2023-07-08T12:46:28.735Z,100461.34
2023-07-08T12:48:56.798Z,100464.09
2023-07-08T12:51:26.361Z,100468.75
2023-07-08T12:53:55.666Z,100482.50
2023-07-08T12:56:26.229Z,100469.28
2023-07-08T12:58:58.922Z,100481.22
2023-07-08T13:01:33.358Z,100467.28
2023-07-08T13:04:05.099Z,100463.09
2023-07-08T13:06:35.582Z,100469.47
2023-07-08T13:09:10.330Z,100460.50
2023-07-08T13:11:39.374Z,100471.97
2023-07-08T13:14:09.119Z,100463.31
2023-07-08T13:16:38.867Z,100458.44
2023-07-08T13:19:07.312Z,100452.47
2023-07-08T13:21:35.619Z,100457.97
2023-07-08T13:24:42.822Z,100458.41
2023-07-08T13:27:18.994Z,100452.97
2023-07-08T13:29:46.999Z,100463.69
2023-07-08T13:32:16.470Z,100458.31
2023-07-08T13:34:48.598Z,100457.19
2023-07-08T13:37:16.629Z,100456.59
2023-07-08T13:39:50.012Z,100458.88
2023-07-08T13:42:18.439Z,100452.50
2023-07-08T13:44:48.166Z,100460.19
2023-07-08T13:47:29.075Z,100449.31
2023-07-08T13:50:06.055Z,100451.19
2023-07-08T13:52:34.470Z,100451.03
2023-07-08T13:55:26.498Z,100450.75
2023-07-08T13:58:16.300Z,100450.00
2023-07-08T14:00:44.449Z,100453.47
2023-07-08T14:03:15.647Z,100443.66
2023-07-08T14:05:47.368Z,100446.81
2023-07-08T14:08:19.051Z,100436.88
2023-07-08T14:10:47.124Z,100445.06
2023-07-08T14:13:16.845Z,100446.63
2023-07-08T14:15:44.941Z,100446.75
2023-07-08T14:18:14.549Z,100451.09
2023-07-08T14:20:42.613Z,100465.53
2023-07-08T14:23:12.045Z,100468.13
2023-07-08T14:25:40.071Z,100468.84
2023-07-08T14:28:09.588Z,100460.78
2023-07-08T14:30:43.028Z,100459.78
2023-07-08T14:33:14.380Z,100461.34
2023-07-08T14:35:43.949Z,100453.38
2023-07-08T14:38:14.566Z,100453.53
2023-07-08T14:40:44.165Z,100456.63
2023-07-08T14:43:20.088Z,100452.88
2023-07-08T14:45:51.828Z,100452.56
2023-07-08T14:48:21.494Z,100451.44
2023-07-08T14:50:49.664Z,100458.53
2023-07-08T14:53:23.225Z,100457.53
2023-07-08T14:55:54.784Z,100458.28
2023-07-08T14:58:25.963Z,100455.56
2023-07-08T15:00:57.751Z,100453.78
2023-07-08T15:03:29.222Z,100454.84
2023-07-08T15:05:57.851Z,100450.97
2023-07-08T15:08:29.028Z,100453.56
2023-07-08T15:10:59.378Z,100447.13
2023-07-08T15:13:32.352Z,100453.50
2023-07-08T15:16:13.246Z,100451.13
2023-07-08T15:18:42.869Z,100451.94
2023-07-08T15:21:16.740Z,100440.59
2023-07-08T15:23:44.741Z,100440.00
2023-07-08T15:26:16.887Z,100450.47
2023-07-08T15:28:53.278Z,100445.63
2023-07-08T15:31:26.015Z,100451.44
2023-07-08T15:33:58.129Z,100445.09
2023-07-08T15:36:32.283Z,100436.16
2023-07-08T15:39:00.250Z,100445.41
2023-07-08T15:41:29.284Z,100443.94
2023-07-08T15:43:58.128Z,100453.91
2023-07-08T15:46:31.332Z,100448.09
2023-07-08T15:49:00.846Z,100452.78
2023-07-08T15:51:30.483Z,100448.06
2023-07-08T15:54:00.960Z,100451.22
2023-07-08T15:56:29.073Z,100450.84
2023-07-08T15:58:57.077Z,100450.19
2023-07-08T16:01:27.110Z,100450.31
2023-07-08T16:03:55.130Z,100461.97
2023-07-08T16:06:24.477Z,100456.88
2023-07-08T16:08:52.428Z,100453.22
2023-07-08T16:11:28.044Z,100459.50
2023-07-08T16:13:56.151Z,100455.91
2023-07-08T16:16:26.621Z,100463.03
2023-07-08T16:18:54.660Z,100457.81
2023-07-08T16:21:23.051Z,100468.50
2023-07-08T16:23:52.381Z,100459.41
2023-07-08T16:26:20.406Z,100466.38
2023-07-08T16:28:49.807Z,100475.72
2023-07-08T16:31:19.974Z,100475.72
2023-07-08T16:33:49.737Z,100480.25
2023-07-08T16:36:21.551Z,100477.53
2023-07-08T16:38:50.234Z,100478.59
2023-07-08T16:41:21.676Z,100476.91
2023-07-08T16:43:50.405Z,100483.22
2023-07-08T16:46:20.054Z,100479.47
2023-07-08T16:48:48.321Z,100482.38
2023-07-08T16:51:18.079Z,100490.72
2023-07-08T16:53:46.916Z,100485.59
2023-07-08T16:56:19.311Z,100491.34
2023-07-08T16:58:48.888Z,100484.09
2023-07-08T17:01:21.757Z,100480.34
2023-07-08T17:03:50.459Z,100484.63
2023-07-08T17:06:18.623Z,100487.13
2023-07-08T17:08:46.789Z,100472.09
2023-07-08T17:11:14.858Z,100474.31
2023-07-08T17:13:42.694Z,100471.41
2023-07-08T17:16:16.336Z,100464.31
2023-07-08T17:18:45.159Z,100468.25
2023-07-08T17:21:16.745Z,100461.53
2023-07-08T17:23:44.795Z,100458.44
2023-07-08T17:26:12.606Z,100455.66
2023-07-08T17:28:40.663Z,100460.06
2023-07-08T17:31:12.030Z,100461.25
2023-07-08T17:33:41.765Z,100457.19
2023-07-08T17:36:12.297Z,100458.88
2023-07-08T17:38:45.533Z,100451.50
2023-07-08T17:41:15.759Z,100462.50
2023-07-08T17:43:43.974Z,100463.84
2023-07-08T17:46:14.600Z,100455.91
2023-07-08T17:48:48.300Z,100449.78
2023-07-08T17:51:17.443Z,100456.00
2023-07-08T17:53:45.672Z,100446.75
2023-07-08T17:56:21.218Z,100451.53
2023-07-08T17:58:50.464Z,100454.53
2023-07-08T18:01:19.050Z,100448.69
2023-07-08T18:03:49.217Z,100452.47
2023-07-08T18:06:17.630Z,100445.28
2023-07-08T18:08:45.635Z,100450.84
2023-07-08T18:11:15.170Z,100443.03
2023-07-08T18:13:43.899Z,100443.47
2023-07-08T18:16:13.693Z,100448.78
2023-07-08T18:18:43.003Z,100447.16
2023-07-08T18:21:15.671Z,100437.31
2023-07-08T18:23:44.427Z,100443.03
2023-07-08T18:26:19.754Z,100442.28
2023-07-08T18:28:48.083Z,100452.56
2023-07-08T18:31:18.152Z,100445.19
2023-07-08T18:33:46.414Z,100448.78
2023-07-08T18:36:17.938Z,100453.97
2023-07-08T18:38:46.178Z,100455.59
2023-07-08T18:41:20.801Z,100453.09
2023-07-08T18:43:49.202Z,100452.84
2023-07-08T18:46:18.875Z,100455.44
2023-07-08T18:48:47.130Z,100448.97
2023-07-08T18:51:19.496Z,100451.63
2023-07-08T18:53:47.471Z,100458.00
2023-07-08T18:56:22.303Z,100461.78
2023-07-08T18:58:50.331Z,100473.69
2023-07-08T19:01:19.496Z,100460.00
2023-07-08T19:03:48.724Z,100474.00
2023-07-08T19:06:19.319Z,100463.03
2023-07-08T19:08:49.169Z,100471.63
2023-07-08T19:11:22.998Z,100471.94
2023-07-08T19:13:51.808Z,100473.44
2023-07-08T19:16:22.707Z,100478.72
2023-07-08T19:18:52.624Z,100474.91
2023-07-08T19:21:25.324Z,100481.25
2023-07-08T19:23:55.715Z,100478.59
2023-07-08T19:26:26.101Z,100485.22
2023-07-08T19:28:56.840Z,100484.06
2023-07-08T19:31:29.581Z,100487.28
2023-07-08T19:33:58.478Z,100495.19
2023-07-08T19:36:28.521Z,100493.00
2023-07-08T19:38:56.519Z,100496.22
2023-07-08T19:41:27.982Z,100503.84
2023-07-08T19:43:57.357Z,100506.09
2023-07-08T19:46:25.603Z,100509.28
2023-07-08T19:48:53.609Z,100512.78
2023-07-08T19:51:21.636Z,100511.28
2023-07-08T19:53:52.892Z,100520.66
2023-07-08T19:56:23.173Z,100517.88
2023-07-08T19:58:52.004Z,100512.31
2023-07-08T20:01:22.027Z,100514.94
2023-07-08T20:03:50.362Z,100524.72
2023-07-08T20:06:21.561Z,100515.31
2023-07-08T20:08:52.757Z,100519.69
2023-07-08T20:11:20.937Z,100519.09
2023-07-08T20:13:49.877Z,100519.13
2023-07-08T20:16:21.540Z,100509.25
2023-07-08T20:18:49.958Z,100512.31
2023-07-08T20:21:17.930Z,100513.31
2023-07-08T20:23:46.336Z,100515.81
2023-07-08T20:26:28.156Z,100513.63
2023-07-08T20:28:56.446Z,100513.81
2023-07-08T20:31:24.967Z,100527.06
2023-07-08T20:33:54.174Z,100523.72
2023-07-08T20:36:23.690Z,100517.97
2023-07-08T20:38:52.141Z,100524.56
2023-07-08T20:41:22.052Z,100520.16
2023-07-08T20:43:50.058Z,100527.88
2023-07-08T20:46:22.066Z,100528.56
2023-07-08T20:48:54.565Z,100532.94
2023-07-08T20:51:25.154Z,100527.25
2023-07-08T20:53:54.004Z,100534.63
2023-07-08T20:56:28.558Z,100533.34
2023-07-08T20:58:59.102Z,100538.72
2023-07-08T21:01:27.584Z,100543.00
2023-07-08T21:03:55.805Z,100538.44
2023-07-08T21:06:30.987Z,100548.53
2023-07-08T21:08:58.960Z,100537.81
2023-07-08T21:11:28.659Z,100547.91
2023-07-08T21:13:57.348Z,100542.66
2023-07-08T21:16:28.107Z,100541.56
2023-07-08T21:18:58.539Z,100546.06
2023-07-08T21:21:26.979Z,100550.00
2023-07-08T21:23:55.107Z,100542.31
2023-07-08T21:26:26.198Z,100543.91
2023-07-08T21:28:57.761Z,100550.41
2023-07-08T21:31:26.205Z,100550.56
2023-07-08T21:33:54.220Z,100558.16
2023-07-08T21:36:26.995Z,100561.25
2023-07-08T21:38:58.197Z,100554.91
2023-07-08T21:41:26.244Z,100554.41
2023-07-08T21:43:55.855Z,100566.25
2023-07-08T21:46:23.885Z,100562.59
2023-07-08T21:48:52.032Z,100571.03
2023-07-08T21:51:28.561Z,100571.19
2023-07-08T21:53:57.519Z,100573.22
2023-07-08T21:56:26.938Z,100578.38
2023-07-08T21:58:57.945Z,100573.72
2023-07-08T22:01:28.614Z,100573.19
2023-07-08T22:03:57.423Z,100567.78
2023-07-08T22:06:27.111Z,100577.13
2023-07-08T22:08:55.860Z,100575.13
2023-07-08T22:11:29.418Z,100571.31
2023-07-08T22:13:59.789Z,100574.66
2023-07-08T22:16:30.008Z,100575.19
2023-07-08T22:18:58.894Z,100575.84
2023-07-08T22:21:30.573Z,100570.44
2023-07-08T22:23:59.518Z,100570.25
2023-07-08T22:26:28.234Z,100567.91
2023-07-08T22:28:56.398Z,100569.94
2023-07-08T22:31:29.417Z,100572.28
2023-07-08T22:33:57.726Z,100574.53
2023-07-08T22:36:25.949Z,100565.63
2023-07-08T22:39:02.455Z,100566.16
2023-07-08T22:41:34.175Z,100570.19
2023-07-08T22:44:02.252Z,100574.47
2023-07-08T22:46:31.678Z,100572.72
2023-07-08T22:49:01.499Z,100569.69
2023-07-08T22:51:34.457Z,100574.59
2023-07-08T22:54:05.263Z,100567.16
2023-07-08T22:56:33.253Z,100574.78
2023-07-08T22:59:01.385Z,100565.91
2023-07-08T23:01:29.391Z,100570.22
2023-07-08T23:03:58.918Z,100575.09
2023-07-08T23:06:28.291Z,100571.84
2023-07-08T23:08:56.504Z,100573.06
2023-07-08T23:11:26.853Z,100568.56
2023-07-08T23:13:54.965Z,100576.22
2023-07-08T23:16:30.306Z,100581.13
2023-07-08T23:19:02.759Z,100577.13
2023-07-08T23:21:32.438Z,100575.31
2023-07-08T23:24:01.687Z,100582.94
2023-07-08T23:26:36.200Z,100573.97
2023-07-08T23:29:06.018Z,100582.75
2023-07-08T23:31:36.219Z,100577.31
2023-07-08T23:34:06.474Z,100576.66
2023-07-08T23:36:37.238Z,100570.34
2023-07-08T23:39:13.997Z,100576.88
2023-07-08T23:41:44.813Z,100575.53
2023-07-08T23:44:13.533Z,100572.16
2023-07-08T23:46:41.417Z,100583.38
2023-07-08T23:49:23.035Z,100586.41
2023-07-08T23:51:51.385Z,100581.13
2023-07-08T23:54:23.064Z,100580.81
2023-07-08T23:56:52.212Z,100578.97
2023-07-08T23:59:20.424Z,100575.50
